Time;durP1;ratioP1;P1;durP2;ratioP2;P2;SDS_P1;SDS_P2;PMS_P1;PMS_P2;Temp;Humidity;BMP_temperature;BMP_pressure;BME280_temperature;BME280_humidity;BME280_pressure;Samples;Min_cycle;Max_cycle;Signal;HPM_P1;HPM_P2
2022/10/10 00:00:48;;;;;;;7.72;5.05;;;;;;;5.38;100.00;101442.03;12601795;23;20025;-87
2022/10/10 00:05:57;;;;;;;;;;;;;;;6.24;100.00;101523.34;12639743;23;20478;-87
2022/10/10 00:11:20;;;;;;;7.20;4.78;;;;;;;4.33;100.00;101219.69;12564370;22;20247;-87
2022/10/10 00:16:59;;;;;;;7.50;4.22;;;;;;;4.09;100.00;101226.50;12764838;23;20005;-87
2022/10/10 00:22:07;;;;;;;8.07;4.47;;;;;;;5.02;100.00;101369.50;12550931;23;20016;-87
2022/10/10 00:27:28;;;;;;;9.85;5.45;;;;;;;5.86;100.00;101493.81;12613548;23;20088;-88
2022/10/10 00:32:28;;;;;;;9.30;5.20;;;;;;;5.43;100.00;101449.59;12792068;23;20031;-88
2022/10/10 00:37:52;;;;;;;9.00;4.93;;;;;;;3.40;100.00;101163.72;12771809;23;20512;-87
2022/10/10 00:42:56;;;;;;;;;;;;;;;5.69;100.00;101503.44;12700663;23;20039;-87
2022/10/10 00:48:04;;;;;;;10.15;5.70;;;;;;;4.05;100.00;101283.28;12830070;22;19969;-87
2022/10/10 00:53:05;;;;;;;10.18;6.30;;;;;;;4.36;100.00;101307.34;12852942;22;20443;-88
2022/10/10 00:58:06;;;;;;;11.70;6.07;;;;;;;4.60;100.00;101333.22;12853147;22;20020;-87
2022/10/10 01:04:10;;;;;;;13.27;5.75;;;;;;;5.51;100.00;101523.16;12771054;22;20083;-87
2022/10/10 01:10:18;;;;;;;10.05;5.85;;;;;;;5.02;100.00;101426.81;12618731;23;21051;-87
2022/10/10 01:16:42;;;;;;;11.02;6.07;;;;;;;2.97;100.00;101025.09;12215787;23;20023;-88
2022/10/10 01:28:55;;;;;;;13.10;5.47;;;;;;;5.65;100.00;101442.09;12046242;23;20040;-89
2022/10/10 01:35:10;;;;;;;9.50;5.90;;;;;;;5.70;100.00;101438.72;12209703;23;20016;-88
2022/10/10 01:47:40;;;;;;;;;;;;;;;;;;;;;
2022/10/10 01:54:16;;;;;;;11.55;5.93;;;;;;;5.67;100.00;101423.59;12175133;23;20032;-88
2022/10/10 02:05:52;;;;;;;14.95;6.03;;;;;;;4.08;100.00;101179.34;12204092;23;20477;-88
2022/10/10 02:10:55;;;;;;;9.05;5.03;;;;;;;4.92;100.00;101328.13;12429967;23;20020;-89
2022/10/10 02:15:56;;;;;;;11.30;6.00;;;;;;;3.58;100.00;101116.09;12725403;23;20009;-88
2022/10/10 02:20:57;;;;;;;9.90;5.07;;;;;;;3.76;100.00;101157.22;12716055;23;20436;-88
2022/10/10 02:25:57;;;;;;;8.00;5.80;;;;;;;5.39;100.00;101432.78;12708496;23;20021;-88
2022/10/10 02:30:59;;;;;;;9.93;5.55;;;;;;;3.97;100.00;101166.28;12702074;23;20006;-88
2022/10/10 02:36:00;;;;;;;8.40;5.63;;;;;;;3.68;100.00;101130.16;12697120;23;20001;-88
2022/10/10 02:41:40;;;;;;;;;;;;;;;;;;;;;
2022/10/10 02:47:21;;;;;;;10.80;5.68;;;;;;;5.07;100.00;101362.56;12468975;23;20053;-88
2022/10/10 02:59:41;;;;;;;11.73;6.50;;;;;;;2.59;100.00;100968.44;12325513;23;20033;-89
2022/10/10 03:05:34;;;;;;;8.82;5.50;;;;;;;5.08;100.00;101354.16;12451977;23;20033;-87
2022/10/10 03:11:35;;;;;;;10.15;5.53;;;;;;;3.42;100.00;101136.31;12266047;23;20377;-87
2022/10/10 03:17:45;;;;;;;14.30;6.30;;;;;;;4.99;100.00;101349.94;11997016;24;20369;-86
2022/10/10 03:24:05;;;;;;;;;;;;;;;;;;;;;
2022/10/10 03:43:07;;;;;;;;;;;;;;;;;;;;;
2022/10/10 03:49:05;;;;;;;10.85;6.80;;;;;;;2.31;100.00;100937.72;12357418;23;20483;-87
2022/10/10 04:01:06;;;;;;;10.55;7.43;;;;;;;2.92;100.00;101060.25;12214735;23;20930;-86
2022/10/10 04:06:08;;;;;;;10.60;7.65;;;;;;;4.22;100.00;101268.28;12557150;23;20009;-86
2022/10/10 04:11:46;;;;;;;12.63;7.25;;;;;;;2.99;100.00;101063.00;12562552;23;20020;-86
2022/10/10 04:17:14;;;;;;;13.07;7.55;;;;;;;3.03;100.00;101051.50;12490749;23;20023;-86
2022/10/10 04:22:27;;;;;;;13.90;8.18;;;;;;;2.50;100.00;100961.47;12575436;23;20077;-86
2022/10/10 04:33:23;;;;;;;18.08;7.82;;;;;;;3.94;100.00;101193.94;12595453;23;20080;-86
2022/10/10 04:38:23;;;;;;;9.27;6.88;;;;;;;4.27;100.00;101225.94;12609919;23;20028;-86
2022/10/10 04:43:24;;;;;;;12.10;7.88;;;;;;;3.89;100.00;101172.78;12606445;23;20018;-86
2022/10/10 04:48:25;;;;;;;13.45;7.65;;;;;;;3.24;100.00;101063.34;12754953;22;20016;-86
2022/10/10 04:53:26;;;;;;;12.80;7.35;;;;;;;3.80;100.00;101153.06;12875578;22;20072;-87
2022/10/10 04:58:26;;;;;;;11.65;7.47;;;;;;;3.67;100.00;101128.47;12854311;22;20068;-86
2022/10/10 05:03:27;;;;;;;14.38;6.82;;;;;;;3.43;100.00;101127.94;12859068;22;20004;-87
2022/10/10 05:08:28;;;;;;;11.70;7.80;;;;;;;2.92;100.00;101014.00;12857873;22;20062;-84
2022/10/10 05:13:30;;;;;;;15.85;7.75;;;;;;;3.47;100.00;101130.25;12859794;22;20005;-86
2022/10/10 05:18:31;;;;;;;11.20;7.63;;;;;;;4.27;100.00;101247.75;12856253;22;20021;-85
2022/10/10 05:23:34;;;;;;;12.75;8.60;;;;;;;2.96;100.00;101015.28;12812038;22;20070;-88
2022/10/10 05:28:35;;;;;;;11.50;7.00;;;;;;;2.79;100.00;100994.88;12774999;22;20015;-88
2022/10/10 05:33:36;;;;;;;15.43;7.93;;;;;;;2.90;100.00;100991.63;12834388;22;20106;-85
2022/10/10 05:38:44;;;;;;;12.73;7.68;;;;;;;4.82;100.00;101344.88;12796976;22;20020;-85
2022/10/10 05:43:57;;;;;;;12.40;7.35;;;;;;;3.48;100.00;101062.00;12794924;22;20032;-84
2022/10/10 05:49:01;;;;;;;15.00;7.88;;;;;;;3.92;100.00;101168.78;12783928;22;20033;-85
2022/10/10 05:54:05;;;;;;;22.15;10.52;;;;;;;3.92;100.00;101174.25;12816549;23;20020;-85
2022/10/10 05:59:19;;;;;;;14.68;8.60;;;;;;;2.94;100.00;100982.00;12820620;22;20019;-86
2022/10/10 06:04:23;;;;;;;16.13;8.75;;;;;;;3.60;100.00;101067.72;12786975;22;20004;-85
2022/10/10 06:09:24;;;;;;;13.07;7.63;;;;;;;3.78;100.00;101076.16;12756757;23;20009;-86
2022/10/10 06:14:24;;;;;;;14.80;8.68;;;;;;;4.50;100.00;101184.69;12808071;23;20076;-86
2022/10/10 06:19:25;;;;;;;12.43;7.60;;;;;;;3.56;100.00;100995.66;12817622;23;20016;-86
2022/10/10 06:24:25;;;;;;;13.75;8.48;;;;;;;4.13;100.00;101059.66;12816908;23;20012;-85
2022/10/10 06:29:26;;;;;;;13.32;8.80;;;;;;;4.91;100.00;101192.72;12842502;23;20048;-86
2022/10/10 06:34:27;;;;;;;11.60;8.40;;;;;;;5.41;100.00;101283.22;12867389;22;20374;-86
2022/10/10 06:39:28;;;;;;;15.90;7.90;;;;;;;4.88;100.00;101168.59;12836056;23;20021;-85
2022/10/10 06:44:28;;;;;;;10.52;7.32;;;;;;;4.16;100.00;101007.50;12815661;23;20039;-86
2022/10/10 06:49:29;;;;;;;9.88;6.97;;;;;;;5.22;100.00;101178.44;12787087;23;20450;-86
2022/10/10 06:54:29;;;;;;;9.75;7.63;;;;;;;4.71;100.00;101058.22;12840689;23;20032;-85
2022/10/10 06:59:30;;;;;;;13.02;7.38;;;;;;;5.84;100.00;101266.38;12866252;23;20019;-86
2022/10/10 07:04:30;;;;;;;10.55;7.97;;;;;;;5.53;100.00;101193.31;12867066;22;20009;-87
2022/10/10 07:09:31;;;;;;;12.85;7.35;;;;;;;6.08;100.00;101228.50;12866567;22;20012;-87
2022/10/10 07:14:31;;;;;;;11.18;7.93;;;;;;;5.40;100.00;101079.50;12814270;23;20020;-86
2022/10/10 07:19:32;;;;;;;13.10;7.28;;;;;;;5.35;100.00;101032.03;12842039;22;20024;-86
2022/10/10 07:24:32;;;;;;;10.95;6.78;;;;;;;5.85;100.00;101071.34;12814378;23;20419;-86
2022/10/10 07:29:33;;;;;;;13.43;7.32;;;;;;;6.65;100.00;101173.94;12841373;22;20023;-86
2022/10/10 07:34:36;;;;;;;13.93;6.35;;;;;;;6.47;100.00;101118.09;12814085;23;20008;-87
2022/10/10 07:39:37;;;;;;;7.88;6.03;;;;;;;7.01;100.00;101167.75;12814712;23;20044;-86
2022/10/10 07:44:37;;;;;;;9.13;7.15;;;;;;;7.46;100.00;101170.31;12838447;23;20008;-86
2022/10/10 07:49:38;;;;;;;10.90;6.57;;;;;;;6.23;100.00;100920.13;12837855;23;20024;-86
2022/10/10 07:54:38;;;;;;;9.40;7.00;;;;;;;7.85;100.00;101172.81;12839514;23;20013;-86
2022/10/10 07:59:39;;;;;;;8.43;6.25;;;;;;;8.34;100.00;101227.72;12839445;23;20012;-86
2022/10/10 08:04:40;;;;;;;13.73;6.55;;;;;;;8.11;100.00;101138.75;12862018;22;20012;-88
2022/10/10 08:09:40;;;;;;;8.75;5.60;;;;;;;7.34;100.00;100991.34;12901273;22;20032;-88
2022/10/10 08:14:41;;;;;;;12.52;6.53;;;;;;;7.80;100.00;101028.25;12811116;23;20013;-87
2022/10/10 08:19:41;;;;;;;9.73;6.45;;;;;;;8.48;100.00;101128.53;12839576;22;20413;-87
2022/10/10 08:24:42;;;;;;;9.75;5.45;;;;;;;8.57;100.00;101137.28;12789803;23;20012;-87
2022/10/10 08:29:43;;;;;;;10.70;6.20;;;;;;;8.68;100.00;101078.84;12788271;23;20039;-87
2022/10/10 08:34:45;;;;;;;10.95;6.38;;;;;;;9.53;100.00;101189.34;12839703;22;20040;-88
2022/10/10 08:39:46;;;;;;;8.70;5.55;;;;;;;9.16;100.00;101092.59;12870107;22;20439;-87
2022/10/10 08:44:52;;;;;;;10.43;6.50;;;;;;;9.35;100.00;101138.06;12898941;22;20028;-88
2022/10/10 08:49:57;;;;;;;10.25;6.28;;;;;;;9.79;100.00;101187.16;12897811;22;20039;-87
2022/10/10 08:55:00;;;;;;;11.10;5.77;;;;;;;8.95;100.00;101028.09;12923687;22;20465;-88
2022/10/10 09:00:07;;;;;;;10.02;5.78;;;;;;;9.25;100.00;101020.53;12850203;22;20027;-87
2022/10/10 09:05:13;;;;;;;10.98;6.10;;;;;;;9.16;100.00;101034.91;12800285;22;20020;-88
2022/10/10 09:10:45;;;;;;;18.13;6.80;;;;;;;9.47;100.00;101050.97;12862740;22;20087;-87
2022/10/10 09:16:05;;;;;;;13.48;6.72;;;;;;;10.24;100.00;101184.53;12925276;22;20015;-88
2022/10/10 09:21:16;;;;;;;11.20;6.00;;;;;;;9.07;100.00;100976.75;12838249;22;20047;-87
2022/10/10 09:26:22;;;;;;;11.30;6.72;;;;;;;10.16;100.00;101099.63;12837972;22;20016;-87
2022/10/10 09:31:34;;;;;;;10.73;6.13;;;;;;;11.11;100.00;101205.44;12866386;22;20021;-87
2022/10/10 09:36:35;;;;;;;12.30;6.20;;;;;;;11.52;100.00;101205.25;12817241;23;20332;-87
2022/10/10 09:41:40;;;;;;;15.50;6.50;;;;;;;11.76;100.00;101205.88;12844978;22;20470;-87
2022/10/10 09:46:40;;;;;;;7.88;6.32;;;;;;;11.42;100.00;101134.25;12816913;23;20004;-88
2022/10/10 09:51:47;;;;;;;9.02;5.95;;;;;;;11.78;100.00;101112.69;12902907;22;20024;-87
2022/10/10 09:56:57;;;;;;;9.50;6.35;;;;;;;11.84;100.00;101114.38;12905459;22;20343;-86
2022/10/10 10:02:02;;;;;;;11.30;6.40;;;;;;;11.55;100.00;101082.56;12905425;22;20016;-86
2022/10/10 10:07:29;;;;;;;11.60;5.85;;;;;;;12.41;100.00;101178.56;12844533;23;20038;-86
2022/10/10 10:12:38;;;;;;;10.55;6.53;;;;;;;13.40;100.00;101263.03;12869695;22;20381;-89
2022/10/10 10:17:38;;;;;;;12.23;7.00;;;;;;;12.68;100.00;101140.72;12834608;22;20493;-88
2022/10/10 10:22:39;;;;;;;14.25;6.18;;;;;;;13.31;100.00;101148.44;12790288;22;20036;-84
2022/10/10 10:27:40;;;;;;;9.00;6.70;;;;;;;12.89;100.00;101152.78;12818995;23;20447;-86
2022/10/10 10:32:52;;;;;;;11.55;5.97;;;;;;;12.23;100.00;101039.78;12880180;22;20011;-87
2022/10/10 10:38:05;;;;;;;12.80;7.00;;;;;;;13.82;100.00;101276.06;12856131;22;20020;-86
2022/10/10 10:43:33;;;;;;;11.52;6.97;;;;;;;13.93;100.00;101279.72;12904254;22;20004;-90
2022/10/10 10:48:40;;;;;;;11.73;6.30;;;;;;;14.28;100.00;101279.13;12883463;22;20074;-89
2022/10/10 10:53:48;;;;;;;12.75;6.15;;;;;;;13.17;100.00;101083.63;12868685;22;20067;-88
2022/10/10 10:59:07;;;;;;;10.00;6.78;;;;;;;13.78;100.00;101183.59;12867873;23;20067;-87
2022/10/10 11:04:22;;;;;;;11.50;6.22;;;;;;;13.13;100.00;101028.88;12868723;23;20012;-86
2022/10/10 11:09:30;;;;;;;13.20;6.93;;;;;;;15.08;100.00;101198.41;12903674;22;20083;-87
2022/10/10 11:14:46;;;;;;;12.68;7.20;;;;;;;15.60;100.00;101159.53;12879837;22;20004;-88
2022/10/10 11:19:55;;;;;;;10.13;5.72;;;;;;;14.37;100.00;100982.22;12900901;22;20027;-85
2022/10/10 11:25:07;;;;;;;9.05;5.20;;;;;;;16.14;100.00;101208.81;12881185;22;20056;-86
2022/10/10 11:30:19;;;;;;;11.93;5.75;;;;;;;15.51;100.00;101168.44;12901709;22;20323;-87
2022/10/10 11:35:28;;;;;;;11.73;5.15;;;;;;;14.91;100.00;101060.06;12840050;22;20062;-86
2022/10/10 11:40:34;;;;;;;12.18;5.40;;;;;;;15.79;100.00;101199.47;12853793;22;20438;-85
2022/10/10 11:45:45;;;;;;;11.15;6.25;;;;;;;14.88;100.00;101101.38;12853395;22;20008;-86
2022/10/10 11:50:48;;;;;;;9.60;5.57;;;;;;;14.43;100.00;101053.16;12874205;22;20123;-86
2022/10/10 11:55:58;;;;;;;18.05;7.20;;;;;;;14.20;100.00;101152.25;12851545;22;20008;-88
2022/10/10 12:01:03;;;;;;;13.15;7.03;;;;;;;13.33;100.00;101102.00;12853153;22;20022;-88
2022/10/10 12:06:11;;;;;;;14.10;6.73;;;;;;;13.86;100.00;101234.84;12852730;22;20438;-88
2022/10/10 12:11:16;;;;;;;10.85;6.18;;;;;;;13.91;100.00;101254.25;12774543;22;20350;-87
2022/10/10 12:16:51;;;;;;;14.43;7.25;;;;;;;12.96;100.00;101149.84;12803968;22;20066;-88
2022/10/10 12:22:02;;;;;;;13.13;6.63;;;;;;;13.22;100.00;101177.66;12886378;22;20095;-87
2022/10/10 12:27:37;;;;;;;10.77;6.57;;;;;;;12.67;100.00;101094.88;12880637;22;20403;-87
2022/10/10 12:32:42;;;;;;;10.68;7.15;;;;;;;13.53;100.00;101281.91;12865491;23;20012;-88
2022/10/10 12:38:15;;;;;;;8.73;6.90;;;;;;;13.72;100.00;101317.47;12872152;23;20009;-86
2022/10/10 12:43:44;;;;;;;11.75;6.90;;;;;;;12.74;100.00;101207.91;12870616;23;20000;-85
2022/10/10 12:48:44;;;;;;;15.35;6.72;;;;;;;12.50;100.00;101177.00;12869289;23;20534;-87
2022/10/10 12:53:48;;;;;;;13.65;6.93;;;;;;;11.87;100.00;101047.69;12870115;22;20034;-86
2022/10/10 12:58:48;;;;;;;13.10;7.47;;;;;;;12.85;100.00;101200.56;12895488;23;20027;-86
2022/10/10 13:03:49;;;;;;;15.07;6.70;;;;;;;12.50;100.00;101166.78;12857075;22;20450;-86
2022/10/10 13:08:50;;;;;;;17.73;7.53;;;;;;;13.28;100.00;101273.38;12833712;23;20008;-87
2022/10/10 13:13:55;;;;;;;9.60;6.35;;;;;;;12.57;100.00;101138.97;12841714;22;22074;-86
2022/10/10 13:18:56;;;;;;;15.85;7.00;;;;;;;12.53;100.00;101137.84;12850602;22;20016;-86
2022/10/10 13:24:01;;;;;;;12.95;7.47;;;;;;;13.10;100.00;101264.41;12902345;22;20040;-87
2022/10/10 13:29:28;;;;;;;14.50;7.55;;;;;;;13.43;100.00;101317.78;12852739;22;20004;-86
2022/10/10 13:34:35;;;;;;;13.52;8.15;;;;;;;12.47;100.00;101186.66;12876502;22;20014;-85
2022/10/10 13:39:36;;;;;;;15.25;10.90;;;;;;;12.91;100.00;101272.19;12876334;22;20544;-87
2022/10/10 13:44:51;;;;;;;17.50;9.88;;;;;;;12.74;100.00;101270.63;12900364;22;20058;-87
2022/10/10 13:49:55;;;;;;;21.02;10.95;;;;;;;12.38;100.00;101242.59;12848220;22;20016;-87
2022/10/10 13:55:21;;;;;;;18.38;10.52;;;;;;;11.30;100.00;101106.78;12850408;22;20007;-87
2022/10/10 14:00:21;;;;;;;20.48;11.90;;;;;;;11.55;100.00;101165.31;12822520;22;20326;-87
2022/10/10 14:05:29;;;;;;;24.83;13.60;;;;;;;11.71;100.00;101198.34;12798447;22;20023;-89
2022/10/10 14:10:34;;;;;;;24.90;14.40;;;;;;;12.37;100.00;101324.59;12823735;22;20454;-90
2022/10/10 14:15:42;;;;;;;28.98;16.52;;;;;;;12.02;100.00;101335.97;12825334;22;20031;-85
2022/10/10 14:20:43;;;;;;;24.50;15.43;;;;;;;11.64;100.00;101276.88;12850771;22;20035;-89
2022/10/10 14:25:45;;;;;;;28.00;17.02;;;;;;;11.37;100.00;101247.22;12821431;22;20004;-84
2022/10/10 14:30:46;;;;;;;25.05;16.30;;;;;;;11.89;100.00;101393.16;12828539;22;20024;-90
2022/10/10 14:35:48;;;;;;;9.35;3.13;;;;;;;10.25;100.00;101263.25;12810646;22;20012;-86
2022/10/10 14:40:49;;;;;;;4.53;1.40;;;;;;;11.44;100.00;101442.78;12856746;22;20021;-86
2022/10/10 14:45:50;;;;;;;5.85;1.10;;;;;;;9.65;100.00;101225.03;12855993;22;20004;-85
2022/10/10 14:50:51;;;;;;;6.35;1.20;;;;;;;10.73;100.00;101409.06;12839460;23;20020;-85
2022/10/10 14:55:52;;;;;;;4.53;1.15;;;;;;;10.60;100.00;101400.00;12790917;23;20001;-85
2022/10/10 15:00:53;;;;;;;11.02;2.03;;;;;;;10.13;100.00;101364.25;12817087;23;20462;-85
2022/10/10 15:05:53;;;;;;;6.22;1.58;;;;;;;10.83;100.00;101492.78;12802815;23;20001;-85
2022/10/10 15:10:56;;;;;;;13.00;1.55;;;;;;;11.32;100.00;101581.47;12767404;23;20393;-86
2022/10/10 15:15:56;;;;;;;13.02;1.83;;;;;;;10.95;100.00;101472.63;12791049;23;20376;-86
2022/10/10 15:20:57;;;;;;;8.32;1.27;;;;;;;10.68;100.00;101432.66;12777927;23;20016;-86
2022/10/10 15:25:58;;;;;;;14.07;2.28;;;;;;;11.23;100.00;101518.72;12789435;23;20004;-86
2022/10/10 15:30:58;;;;;;;20.08;3.55;;;;;;;11.60;100.00;101549.53;12840674;23;20008;-85
2022/10/10 15:36:04;;;;;;;11.68;2.03;;;;;;;10.88;100.00;101412.16;12790900;23;20012;-85
2022/10/10 15:41:06;;;;;;;10.45;2.05;;;;;;;10.20;100.00;101342.94;12830060;22;20021;-86
2022/10/10 15:46:07;;;;;;;15.35;1.98;;;;;;;11.73;100.00;101592.56;12823965;23;20023;-84
2022/10/10 15:51:07;;;;;;;14.75;2.10;;;;;;;10.42;100.00;101427.69;12811924;23;20036;-87
2022/10/10 15:56:10;;;;;;;22.42;2.60;;;;;;;10.43;100.00;101463.22;12811292;23;20004;-86
2022/10/10 16:01:12;;;;;;;17.90;2.33;;;;;;;10.33;100.00;101468.47;12813926;23;20024;-85
2022/10/10 16:06:14;;;;;;;24.73;2.50;;;;;;;10.51;100.00;101522.59;12799955;23;20447;-86
2022/10/10 16:11:15;;;;;;;18.27;2.08;;;;;;;10.01;100.00;101473.44;12765345;23;20000;-84
2022/10/10 16:16:16;;;;;;;13.77;2.38;;;;;;;11.13;100.00;101675.59;12789804;23;20005;-85
2022/10/10 16:21:18;;;;;;;14.90;2.53;;;;;;;9.76;100.00;101479.94;12839307;23;20020;-85
2022/10/10 16:26:22;;;;;;;16.70;2.13;;;;;;;9.92;100.00;101527.09;12813057;23;20013;-85
2022/10/10 16:31:23;;;;;;;24.58;2.75;;;;;;;9.94;100.00;101577.22;12762144;23;20008;-85
2022/10/10 16:36:26;;;;;;;15.50;2.10;;;;;;;9.67;100.00;101564.66;12811563;23;20000;-85
2022/10/10 16:41:28;;;;;;;13.00;2.85;;;;;;;9.17;100.00;101470.59;12811583;23;20323;-85
2022/10/10 16:46:29;;;;;;;19.80;2.42;;;;;;;8.64;100.00;101445.44;12812150;23;20513;-85
2022/10/10 16:51:30;;;;;;;15.40;2.38;;;;;;;9.44;100.00;101587.34;12857262;22;20069;-85
2022/10/10 16:56:31;;;;;;;14.00;2.40;;;;;;;8.49;100.00;101530.00;12875167;23;20924;-84
2022/10/10 17:01:31;;;;;;;15.43;2.15;;;;;;;8.83;100.00;101596.47;12814580;23;20044;-84
2022/10/10 17:06:36;;;;;;;11.82;1.85;;;;;;;8.38;100.00;101549.94;12812301;23;20029;-85
2022/10/10 17:11:36;;;;;;;12.10;2.10;;;;;;;8.84;100.00;101658.53;12899715;23;20019;-83
2022/10/10 17:16:37;;;;;;;15.00;2.40;;;;;;;8.12;100.00;101542.72;12849076;23;20015;-84
2022/10/10 17:21:37;;;;;;;12.25;1.60;;;;;;;8.03;100.00;101553.97;12902730;22;20016;-86
2022/10/10 17:26:38;;;;;;;15.35;2.17;;;;;;;8.98;100.00;101733.41;12859645;23;20015;-87
2022/10/10 17:31:39;;;;;;;9.75;2.05;;;;;;;7.58;100.00;101517.53;12882540;23;20443;-86
2022/10/10 17:36:39;;;;;;;12.07;1.98;;;;;;;9.22;100.00;101804.03;12880543;23;20015;-86
2022/10/10 17:41:40;;;;;;;17.70;2.25;;;;;;;8.52;100.00;101732.66;12836661;22;20385;-89
2022/10/10 17:46:41;;;;;;;14.02;2.10;;;;;;;7.55;100.00;101622.09;12788370;23;20313;-85
2022/10/10 17:51:41;;;;;;;18.45;2.45;;;;;;;7.92;100.00;101710.09;12802140;23;20080;-86
2022/10/10 17:56:43;;;;;;;16.70;3.65;;;;;;;7.55;100.00;101649.50;12842526;22;20023;-86
2022/10/10 18:01:44;;;;;;;21.58;3.00;;;;;;;7.78;100.00;101723.84;12868210;22;20087;-84
2022/10/10 18:06:44;;;;;;;13.48;2.90;;;;;;;7.34;100.00;101692.53;12820054;23;20004;-85
2022/10/10 18:11:45;;;;;;;13.05;3.42;;;;;;;8.09;100.00;101821.00;12852659;22;20044;-86
2022/10/10 18:16:46;;;;;;;15.63;2.78;;;;;;;6.11;100.00;101544.34;12893299;22;20012;-86
2022/10/10 18:21:48;;;;;;;20.73;3.85;;;;;;;6.56;100.00;101586.44;12894086;22;20043;-85
2022/10/10 18:26:48;;;;;;;14.93;3.67;;;;;;;7.54;100.00;101807.56;12904484;22;20004;-87
2022/10/10 18:31:49;;;;;;;23.27;4.32;;;;;;;7.22;100.00;101735.31;12852730;22;20000;-91
2022/10/10 18:36:50;;;;;;;18.45;3.88;;;;;;;6.71;100.00;101686.66;12827866;22;20035;-87
2022/10/10 18:41:50;;;;;;;16.75;5.28;;;;;;;7.01;100.00;101770.06;12826683;23;20047;-87
2022/10/10 18:46:51;;;;;;;20.20;4.65;;;;;;;6.81;100.00;101782.88;12802759;23;20007;-91
2022/10/10 18:51:52;;;;;;;14.73;3.60;;;;;;;6.10;100.00;101658.31;12848691;23;20079;-88
2022/10/10 18:56:52;;;;;;;17.85;4.95;;;;;;;6.81;100.00;101785.59;12872932;23;20015;-86
2022/10/10 19:01:54;;;;;;;35.63;5.90;;;;;;;6.91;100.00;101818.91;12849197;23;20106;-86
2022/10/10 19:06:54;;;;;;;23.77;4.70;;;;;;;6.25;100.00;101732.81;12856230;22;20050;-83
2022/10/10 19:11:55;;;;;;;23.50;3.20;;;;;;;7.14;100.00;101858.75;12845164;23;20012;-83
2022/10/10 19:16:56;;;;;;;20.70;4.75;;;;;;;5.72;100.00;101656.03;12816642;23;20024;-84
2022/10/10 19:21:56;;;;;;;19.58;3.72;;;;;;;6.43;100.00;101813.50;12817389;22;20100;-84
2022/10/10 19:26:57;;;;;;;18.83;3.17;;;;;;;6.72;100.00;101858.84;12815718;23;20458;-84
2022/10/10 19:31:58;;;;;;;16.08;3.03;;;;;;;6.65;100.00;101861.53;12865697;22;20012;-84
2022/10/10 19:36:59;;;;;;;17.35;2.72;;;;;;;6.48;100.00;101835.59;12844177;22;20008;-84
2022/10/10 19:41:59;;;;;;;20.30;3.00;;;;;;;6.73;100.00;101892.53;12867233;22;20008;-83
2022/10/10 19:47:00;;;;;;;15.52;3.33;;;;;;;6.87;100.00;101911.53;12793999;23;20335;-83
2022/10/10 19:52:00;;;;;;;17.42;2.95;;;;;;;5.42;100.00;101689.06;12817767;23;20050;-84
2022/10/10 19:57:03;;;;;;;23.58;4.53;;;;;;;6.61;100.00;101876.66;12826927;23;20044;-86
2022/10/10 20:02:03;;;;;;;18.77;3.67;;;;;;;6.26;100.00;101857.59;12872868;23;20008;-87
2022/10/10 20:07:04;;;;;;;16.58;3.60;;;;;;;6.32;100.00;101803.09;12849505;23;20019;-87
2022/10/10 20:12:05;;;;;;;17.88;3.00;;;;;;;6.52;100.00;101879.81;12872902;23;20024;-87
2022/10/10 20:17:05;;;;;;;20.58;3.67;;;;;;;6.32;100.00;101822.25;12847592;23;20003;-87
2022/10/10 20:22:06;;;;;;;19.50;4.10;;;;;;;6.30;100.00;101846.22;12848201;23;20534;-87
2022/10/10 20:27:07;;;;;;;25.08;3.65;;;;;;;6.54;100.00;101905.91;12848020;23;20350;-87
2022/10/10 20:32:07;;;;;;;24.08;4.45;;;;;;;5.80;100.00;101806.13;12816092;22;20079;-87
2022/10/10 20:37:08;;;;;;;13.85;2.70;;;;;;;6.13;100.00;101859.38;12841804;23;20336;-85
2022/10/10 20:42:08;;;;;;;23.55;3.33;;;;;;;6.91;100.00;102031.59;12883051;22;20019;-89
2022/10/10 20:47:09;;;;;;;12.52;2.92;;;;;;;5.80;100.00;101838.09;12911826;22;20011;-89
2022/10/10 20:52:10;;;;;;;24.15;4.38;;;;;;;6.41;100.00;101966.03;12907613;22;20020;-87
2022/10/10 20:57:10;;;;;;;23.38;3.83;;;;;;;5.41;100.00;101807.53;12909368;22;20008;-88
2022/10/10 21:03:02;;;;;;;16.23;3.15;;;;;;;5.03;100.00;101761.41;12861782;22;20051;-88
2022/10/10 21:15:14;;;;;;;;;;;;;;;;;;;;;
2022/10/10 21:21:28;;;;;;;29.70;5.28;;;;;;;6.96;100.00;102117.53;12511425;23;20075;-87
2022/10/10 22:03:34;;;;;;;22.73;4.03;;;;;;;6.66;100.00;102161.53;12771173;22;2836934;-88
2022/10/10 22:15:54;;;;;;;24.33;3.15;;;;;;;4.68;100.00;101834.09;12445063;23;20013;-87
2022/10/10 22:21:49;;;;;;;;;;;;;;;;;;;;;
2022/10/10 22:32:41;;;;;;;14.73;3.40;;;;;;;5.05;100.00;101960.47;11930417;24;20024;-87
2022/10/10 22:37:42;;;;;;;24.13;4.88;;;;;;;5.42;100.00;102055.03;12337283;23;20019;-87
2022/10/10 22:42:43;;;;;;;18.42;5.82;;;;;;;5.84;100.00;102097.13;12630080;23;20009;-87
2022/10/10 22:47:43;;;;;;;17.00;3.85;;;;;;;5.81;100.00;102116.66;12779745;23;20091;-87
2022/10/10 22:52:44;;;;;;;21.08;3.42;;;;;;;5.64;100.00;102112.44;12779607;23;20035;-87
2022/10/10 22:57:45;;;;;;;21.17;3.60;;;;;;;5.50;100.00;102075.06;12779776;23;20013;-87
2022/10/10 23:02:45;;;;;;;22.10;2.63;;;;;;;5.21;100.00;102058.53;12841980;22;20073;-87
2022/10/10 23:07:46;;;;;;;16.08;3.10;;;;;;;5.21;100.00;102030.41;12880198;22;20134;-87
2022/10/10 23:12:46;;;;;;;20.02;5.00;;;;;;;4.80;100.00;101958.06;12893325;22;20019;-87
2022/10/10 23:17:47;;;;;;;22.80;4.55;;;;;;;5.87;100.00;102142.38;12895666;22;20043;-87
2022/10/10 23:22:47;;;;;;;21.50;4.95;;;;;;;5.88;100.00;102206.09;12893481;22;20007;-87
2022/10/10 23:27:48;;;;;;;21.90;3.03;;;;;;;5.29;100.00;102064.94;12919261;22;20004;-87
2022/10/10 23:32:49;;;;;;;21.10;3.20;;;;;;;5.98;100.00;102179.31;12918106;22;20079;-87
2022/10/10 23:37:49;;;;;;;15.88;3.63;;;;;;;5.92;100.00;102188.25;12894753;22;20074;-87
2022/10/10 23:42:55;;;;;;;15.85;3.25;;;;;;;4.95;100.00;102064.47;12893765;22;20087;-87
2022/10/10 23:47:55;;;;;;;20.05;3.05;;;;;;;5.88;100.00;102234.25;12919795;22;20000;-87
2022/10/10 23:52:56;;;;;;;24.92;3.92;;;;;;;4.62;100.00;102015.72;12920458;22;20057;-88
2022/10/10 23:58:02;;;;;;;16.10;2.80;;;;;;;5.26;100.00;102088.00;12894949;22;20273;-87
